Time;durP1;ratioP1;P1;durP2;ratioP2;P2;SDS_P1;SDS_P2;PMS_P1;PMS_P2;Temp;Humidity;BMP_temperature;BMP_pressure;BME280_temperature;BME280_humidity;BME280_pressure;Samples;Min_cycle;Max_cycle;Signal;HPM_P1;HPM_P2
2023/02/20 00:01:37;;;;;;;43.42;22.77;;;5.40;99.90;;;;;;5066965;28;20036;-74
2023/02/20 00:04:03;;;;;;;31.95;19.90;;;5.40;99.90;;;;;;5064384;28;20410;-74
2023/02/20 00:06:30;;;;;;;38.72;22.73;;;5.40;99.90;;;;;;5048848;28;20520;-74
2023/02/20 00:08:56;;;;;;;38.28;23.77;;;5.50;99.90;;;;;;5032268;28;20147;-75
2023/02/20 00:11:22;;;;;;;37.97;24.10;;;5.50;99.90;;;;;;5043284;28;20039;-73
2023/02/20 00:13:49;;;;;;;38.83;24.50;;;5.50;99.90;;;;;;5061685;28;20043;-73
2023/02/20 00:16:15;;;;;;;36.53;23.90;;;5.60;99.90;;;;;;5063736;28;20044;-74
2023/02/20 00:18:42;;;;;;;42.45;25.95;;;5.60;99.90;;;;;;5044282;28;20044;-76
2023/02/20 00:21:09;;;;;;;42.03;26.30;;;5.60;99.90;;;;;;5035934;28;20399;-74
2023/02/20 00:23:35;;;;;;;40.03;25.10;;;5.60;99.90;;;;;;5054893;28;20438;-73
2023/02/20 00:26:01;;;;;;;48.67;28.52;;;5.60;99.90;;;;;;5069484;28;20058;-73
2023/02/20 00:28:28;;;;;;;39.70;27.30;;;5.60;99.90;;;;;;5047333;28;20690;-75
2023/02/20 00:30:55;;;;;;;43.63;28.77;;;5.60;99.90;;;;;;5037126;28;20514;-73
2023/02/20 00:33:21;;;;;;;56.38;32.58;;;5.60;99.90;;;;;;5031715;28;20348;-73
2023/02/20 00:35:48;;;;;;;45.97;28.75;;;5.60;99.90;;;;;;5023251;28;20040;-75
2023/02/20 00:38:15;;;;;;;49.20;29.52;;;5.60;99.90;;;;;;5047870;28;20059;-74
2023/02/20 00:40:41;;;;;;;48.50;29.85;;;5.70;99.90;;;;;;5063559;28;20036;-74
2023/02/20 00:43:08;;;;;;;49.15;31.75;;;5.70;99.90;;;;;;5064765;28;20035;-76
2023/02/20 00:45:34;;;;;;;47.78;29.85;;;5.70;99.90;;;;;;5046900;28;20048;-74
2023/02/20 00:48:00;;;;;;;55.28;34.28;;;5.70;99.90;;;;;;5065810;28;20028;-75
2023/02/20 00:50:27;;;;;;;49.42;31.20;;;5.80;99.90;;;;;;5067096;28;20202;-74
2023/02/20 00:52:53;;;;;;;51.72;32.40;;;5.80;99.90;;;;;;5041135;28;20474;-73
2023/02/20 00:55:19;;;;;;;46.28;29.52;;;5.80;99.90;;;;;;5067036;28;20041;-73
2023/02/20 00:57:46;;;;;;;49.00;29.73;;;5.90;99.90;;;;;;5051149;28;20059;-73
2023/02/20 01:00:23;;;;;;;48.75;31.23;;;5.90;99.90;;;;;;5047528;28;20513;-73
2023/02/20 01:02:50;;;;;;;45.30;29.63;;;5.90;99.90;;;;;;5031512;28;20042;-74
2023/02/20 01:05:16;;;;;;;40.67;26.35;;;5.90;99.90;;;;;;5055035;28;20052;-76
2023/02/20 01:07:42;;;;;;;43.70;27.60;;;5.90;99.90;;;;;;5038522;28;20051;-75
2023/02/20 01:10:10;;;;;;;43.53;27.40;;;5.80;99.90;;;;;;5043672;28;20036;-73
2023/02/20 01:12:36;;;;;;;43.17;27.13;;;5.80;99.90;;;;;;5044662;28;20036;-73
2023/02/20 01:15:04;;;;;;;36.67;23.48;;;5.70;99.90;;;;;;5047384;28;20043;-73
2023/02/20 01:17:30;;;;;;;35.10;22.17;;;5.70;99.90;;;;;;5051243;28;20035;-74
2023/02/20 01:19:57;;;;;;;38.17;22.30;;;5.70;99.90;;;;;;5046781;28;20443;-73
2023/02/20 01:22:23;;;;;;;39.50;22.55;;;5.70;99.90;;;;;;5038897;28;20047;-74
2023/02/20 01:24:50;;;;;;;37.35;23.33;;;5.60;99.90;;;;;;5058945;28;20039;-73
2023/02/20 01:27:16;;;;;;;40.67;22.38;;;5.60;99.90;;;;;;5038418;28;20468;-76
2023/02/20 01:29:42;;;;;;;42.03;24.20;;;5.60;99.90;;;;;;5046904;28;20037;-75
2023/02/20 01:32:11;;;;;;;44.47;25.40;;;5.50;99.90;;;;;;5048395;28;20051;-74
2023/02/20 01:34:38;;;;;;;31.52;21.05;;;5.50;99.90;;;;;;5065086;28;20020;-73
2023/02/20 01:37:04;;;;;;;36.13;23.15;;;5.50;99.90;;;;;;5051560;28;20490;-74
2023/02/20 01:39:31;;;;;;;41.00;23.23;;;5.50;99.90;;;;;;5046731;28;20684;-73
2023/02/20 01:42:00;;;;;;;42.15;24.02;;;5.50;99.90;;;;;;5050140;28;20040;-75
2023/02/20 01:44:33;;;;;;;34.42;21.35;;;5.50;99.90;;;;;;5030887;28;20035;-73
2023/02/20 01:47:04;;;;;;;38.47;23.02;;;5.40;99.90;;;;;;5037536;28;20033;-73
2023/02/20 01:49:44;;;;;;;39.42;23.92;;;5.40;99.90;;;;;;5052091;28;20360;-74
2023/02/20 01:52:20;;;;;;;39.47;24.13;;;5.40;99.90;;;;;;5063344;28;20578;-75
2023/02/20 01:54:56;;;;;;;33.78;20.67;;;5.40;99.90;;;;;;5047408;28;20044;-74
2023/02/20 01:57:25;;;;;;;37.83;23.25;;;5.30;99.90;;;;;;5036669;28;20047;-74
2023/02/20 01:59:56;;;;;;;38.60;20.65;;;5.30;99.90;;;;;;5038533;28;20494;-74
2023/02/20 02:02:23;;;;;;;32.70;20.65;;;5.30;99.90;;;;;;5069411;28;20047;-74
2023/02/20 02:04:50;;;;;;;36.40;21.85;;;5.30;99.90;;;;;;5063076;28;20035;-74
2023/02/20 02:07:16;;;;;;;34.42;20.92;;;5.30;99.90;;;;;;5049343;28;20383;-75
2023/02/20 02:09:46;;;;;;;38.60;23.02;;;5.30;99.90;;;;;;5044379;28;20035;-74
2023/02/20 02:12:12;;;;;;;36.75;21.98;;;5.30;99.90;;;;;;5048408;28;20597;-75
2023/02/20 02:14:39;;;;;;;40.35;22.45;;;5.30;99.90;;;;;;5040464;28;20336;-74
2023/02/20 02:17:21;;;;;;;36.17;21.70;;;5.30;99.90;;;;;;5051594;28;20036;-74
2023/02/20 02:20:03;;;;;;;38.08;22.08;;;5.30;99.90;;;;;;5044862;28;20070;-73
2023/02/20 02:22:52;;;;;;;38.95;21.67;;;5.30;99.90;;;;;;5049042;28;20422;-75
2023/02/20 02:25:47;;;;;;;34.90;19.73;;;5.30;99.90;;;;;;5066623;28;20039;-76
2023/02/20 02:28:53;;;;;;;36.63;21.75;;;5.30;99.90;;;;;;5020854;28;20025;-74
2023/02/20 02:32:01;;;;;;;40.53;22.10;;;5.30;99.90;;;;;;5046708;28;20501;-74
2023/02/20 02:35:06;;;;;;;40.33;22.73;;;5.30;99.90;;;;;;5044499;28;20043;-75
2023/02/20 02:37:54;;;;;;;45.95;26.52;;;5.30;99.90;;;;;;5047435;28;20048;-74
2023/02/20 02:40:32;;;;;;;43.28;24.60;;;5.40;99.90;;;;;;5064360;28;20047;-76
2023/02/20 02:43:34;;;;;;;45.00;25.92;;;5.50;99.90;;;;;;5035752;28;21977;-73
2023/02/20 02:46:29;;;;;;;46.97;28.02;;;5.60;99.90;;;;;;5064512;28;20708;-74
2023/02/20 02:49:23;;;;;;;46.88;26.02;;;5.70;99.90;;;;;;5028927;28;20051;-74
2023/02/20 02:51:53;;;;;;;48.38;29.45;;;5.70;99.90;;;;;;5050958;28;20070;-75
2023/02/20 02:54:25;;;;;;;49.03;28.45;;;5.80;99.90;;;;;;5046537;28;20474;-74
2023/02/20 02:57:12;;;;;;;51.45;27.48;;;5.90;99.90;;;;;;5046956;28;20368;-74
2023/02/20 02:59:41;;;;;;;48.85;28.45;;;5.90;99.90;;;;;;5048537;28;20044;-74
2023/02/20 03:02:13;;;;;;;56.35;32.67;;;6.00;99.90;;;;;;5016295;28;20498;-73
2023/02/20 03:04:41;;;;;;;54.67;33.00;;;6.00;99.90;;;;;;5045487;28;20044;-74
2023/02/20 03:07:14;;;;;;;59.13;31.88;;;6.10;99.90;;;;;;5047532;28;20028;-75
2023/02/20 03:09:47;;;;;;;60.53;34.25;;;6.10;99.90;;;;;;5044113;28;20055;-73
2023/02/20 03:12:14;;;;;;;;;;;6.10;99.90;;;;;;5033856;28;20033;-74
2023/02/20 03:17:45;;;;;;;68.75;37.72;;;6.20;99.90;;;;;;5045890;28;20407;-73
2023/02/20 03:20:15;;;;;;;75.03;40.28;;;6.20;99.90;;;;;;5051553;28;20415;-73
2023/02/20 03:22:46;;;;;;;75.70;45.58;;;6.20;99.90;;;;;;5039203;28;20898;-74
2023/02/20 03:25:36;;;;;;;72.65;41.95;;;6.20;99.90;;;;;;5062482;28;20036;-73
2023/02/20 03:28:09;;;;;;;70.97;41.60;;;6.30;99.90;;;;;;5031029;28;20036;-73
2023/02/20 03:30:41;;;;;;;75.03;43.58;;;6.30;99.90;;;;;;5051844;28;20036;-73
2023/02/20 03:45:04;;;;;;;82.07;45.00;;;6.30;99.90;;;;;;5046344;28;20048;-76
2023/02/20 03:47:34;;;;;;;90.18;50.65;;;6.40;99.90;;;;;;5047388;28;20040;-74
2023/02/20 03:50:03;;;;;;;92.45;49.58;;;6.40;99.90;;;;;;5046412;28;20400;-73
2023/02/20 03:52:32;;;;;;;92.88;53.65;;;6.40;99.90;;;;;;5043465;28;20040;-73
2023/02/20 03:54:58;;;;;;;93.07;52.97;;;6.40;99.90;;;;;;5047285;28;20408;-73
2023/02/20 03:57:39;;;;;;;98.82;53.25;;;6.50;99.90;;;;;;5049458;28;20037;-74
2023/02/20 04:00:13;;;;;;;81.43;50.50;;;6.50;99.90;;;;;;5045785;28;20048;-72
2023/02/20 04:02:53;;;;;;;99.25;56.70;;;6.50;99.90;;;;;;5046925;28;20043;-73
2023/02/20 04:05:26;;;;;;;85.35;51.30;;;6.50;99.90;;;;;;5050165;28;20523;-73
2023/02/20 04:07:58;;;;;;;88.90;50.25;;;6.50;99.90;;;;;;5051382;28;20028;-73
2023/02/20 04:10:35;;;;;;;105.40;58.00;;;6.50;99.90;;;;;;5021295;28;20492;-73
2023/02/20 04:13:03;;;;;;;95.28;54.47;;;6.50;99.90;;;;;;5048016;28;20033;-73
2023/02/20 04:15:32;;;;;;;95.70;54.22;;;6.50;99.90;;;;;;5067219;28;20039;-73
2023/02/20 04:18:14;;;;;;;98.18;55.53;;;6.60;99.90;;;;;;5030234;28;20055;-73
2023/02/20 04:20:42;;;;;;;98.63;55.47;;;6.60;99.90;;;;;;5022750;28;20041;-73
2023/02/20 04:23:23;;;;;;;103.13;56.78;;;6.60;99.90;;;;;;5030124;28;20035;-73
2023/02/20 04:26:08;;;;;;;110.28;58.97;;;6.60;99.90;;;;;;5052542;28;20037;-75
2023/02/20 04:28:37;;;;;;;101.35;56.80;;;6.70;99.90;;;;;;5020602;28;20037;-73
2023/02/20 04:31:06;;;;;;;97.80;55.13;;;6.60;99.90;;;;;;5047398;28;20029;-74
2023/02/20 04:33:35;;;;;;;99.72;55.03;;;6.70;99.90;;;;;;5033844;28;20072;-73
2023/02/20 04:36:07;;;;;;;98.70;52.47;;;6.70;99.90;;;;;;5048879;28;20032;-73
2023/02/20 04:38:34;;;;;;;106.18;56.15;;;6.70;99.90;;;;;;5031465;28;20543;-73
2023/02/20 04:41:03;;;;;;;113.70;60.85;;;6.70;99.90;;;;;;5045733;28;20032;-73
2023/02/20 04:43:29;;;;;;;100.75;57.38;;;6.80;99.90;;;;;;5045879;28;20040;-76
2023/02/20 04:45:56;;;;;;;103.78;58.13;;;6.80;99.90;;;;;;5049917;28;20755;-76
2023/02/20 04:48:23;;;;;;;114.90;61.13;;;6.80;99.90;;;;;;5033930;28;20037;-73
2023/02/20 04:50:49;;;;;;;98.50;56.95;;;6.80;99.90;;;;;;5020976;28;20036;-73
2023/02/20 04:53:16;;;;;;;118.18;58.88;;;6.80;99.90;;;;;;5021549;28;20044;-73
2023/02/20 04:55:43;;;;;;;101.07;55.88;;;6.90;99.90;;;;;;5044821;28;20866;-73
2023/02/20 04:58:13;;;;;;;110.53;56.35;;;6.90;99.90;;;;;;5043848;28;20040;-75
2023/02/20 05:00:50;;;;;;;108.53;56.28;;;6.90;99.90;;;;;;5046016;28;20464;-75
2023/02/20 05:03:16;;;;;;;102.20;54.05;;;6.90;99.90;;;;;;5032213;28;20671;-73
2023/02/20 05:05:43;;;;;;;92.60;53.33;;;6.90;99.90;;;;;;5047330;28;20029;-73
2023/02/20 05:08:09;;;;;;;104.43;56.17;;;6.90;99.90;;;;;;5046485;28;20028;-73
2023/02/20 05:10:36;;;;;;;96.93;54.53;;;6.90;99.90;;;;;;5048799;28;20033;-73
2023/02/20 05:13:02;;;;;;;97.80;55.47;;;6.90;99.90;;;;;;5028614;28;20037;-73
2023/02/20 05:15:30;;;;;;;99.13;53.65;;;7.00;99.90;;;;;;5048864;28;20044;-73
2023/02/20 05:17:56;;;;;;;96.15;51.33;;;7.00;99.90;;;;;;5044821;28;20393;-74
2023/02/20 05:22:17;;;;;;;94.15;50.63;;;7.00;99.90;;;;;;5044304;28;20036;-76
2023/02/20 05:23:12;;;;;;;101.63;51.20;;;7.00;99.90;;;;;;5049032;28;20435;-75
2023/02/20 05:25:38;;;;;;;80.50;46.58;;;7.00;99.90;;;;;;5048132;28;20484;-76
2023/02/20 05:28:05;;;;;;;91.57;50.97;;;7.00;99.90;;;;;;5032776;28;20037;-73
2023/02/20 05:30:31;;;;;;;87.30;48.00;;;7.10;99.90;;;;;;5044512;28;20502;-73
2023/02/20 05:32:57;;;;;;;101.25;48.88;;;7.10;99.90;;;;;;5061250;28;20491;-74
2023/02/20 05:35:24;;;;;;;95.40;46.63;;;7.10;99.90;;;;;;5047576;28;20522;-75
2023/02/20 05:37:50;;;;;;;91.15;48.67;;;7.10;99.90;;;;;;5047102;28;20043;-75
2023/02/20 05:40:16;;;;;;;84.90;44.63;;;7.10;99.90;;;;;;5034091;28;20059;-75
2023/02/20 05:42:43;;;;;;;72.47;41.40;;;7.10;99.90;;;;;;5046200;28;20044;-74
2023/02/20 05:45:09;;;;;;;77.82;41.13;;;7.20;99.90;;;;;;5043803;28;20052;-73
2023/02/20 05:47:37;;;;;;;78.80;42.88;;;7.20;99.90;;;;;;5044786;28;20044;-74
2023/02/20 05:50:04;;;;;;;78.05;42.85;;;7.20;99.90;;;;;;5030638;28;20376;-74
2023/02/20 05:52:30;;;;;;;79.65;41.05;;;7.20;99.90;;;;;;5043984;28;20029;-75
2023/02/20 05:54:56;;;;;;;79.05;40.08;;;7.20;99.90;;;;;;5045367;28;20040;-73
2023/02/20 05:57:23;;;;;;;74.47;39.25;;;7.20;99.90;;;;;;5046477;28;20028;-75
2023/02/20 05:59:49;;;;;;;68.68;38.35;;;7.30;99.90;;;;;;5042266;28;20045;-73
2023/02/20 06:02:15;;;;;;;74.85;39.25;;;7.30;99.90;;;;;;5046192;28;20037;-73
2023/02/20 06:04:41;;;;;;;72.22;39.33;;;7.30;99.90;;;;;;5045374;28;20503;-74
2023/02/20 06:07:09;;;;;;;70.53;38.08;;;7.30;99.90;;;;;;5033472;28;20035;-73
2023/02/20 06:09:35;;;;;;;74.35;38.90;;;7.30;99.90;;;;;;5041660;28;20041;-73
2023/02/20 06:12:02;;;;;;;72.97;38.50;;;7.30;99.90;;;;;;5015472;28;20041;-75
2023/02/20 06:14:28;;;;;;;70.75;37.03;;;7.30;99.90;;;;;;5048187;28;20765;-73
2023/02/20 06:16:56;;;;;;;79.88;39.03;;;7.30;99.90;;;;;;5031184;28;20044;-73
2023/02/20 06:19:24;;;;;;;72.40;36.10;;;7.30;99.90;;;;;;5046957;28;20130;-74
2023/02/20 06:21:52;;;;;;;67.32;36.42;;;7.40;99.90;;;;;;5032486;28;20037;-76
2023/02/20 06:24:19;;;;;;;68.90;35.65;;;7.40;99.90;;;;;;5048006;28;20036;-73
2023/02/20 06:26:46;;;;;;;66.72;36.88;;;7.40;99.90;;;;;;5030229;28;20045;-74
2023/02/20 06:29:13;;;;;;;69.70;35.90;;;7.40;99.90;;;;;;5042722;28;20045;-74
2023/02/20 06:31:40;;;;;;;68.60;35.45;;;7.40;99.90;;;;;;5046760;28;20467;-73
2023/02/20 06:34:07;;;;;;;65.75;36.45;;;7.50;99.90;;;;;;5030393;28;20420;-73
2023/02/20 06:36:36;;;;;;;67.15;34.97;;;7.50;99.90;;;;;;5045280;28;20036;-73
2023/02/20 06:39:04;;;;;;;65.57;35.50;;;7.50;99.90;;;;;;5042623;28;20044;-74
2023/02/20 06:41:30;;;;;;;72.75;36.20;;;7.50;99.90;;;;;;5045576;28;20348;-75
2023/02/20 06:43:57;;;;;;;73.03;35.97;;;7.50;99.90;;;;;;5045429;28;20037;-73
2023/02/20 06:46:24;;;;;;;65.10;32.58;;;7.50;99.90;;;;;;5048102;28;20052;-74
2023/02/20 06:48:52;;;;;;;60.03;32.08;;;7.50;99.90;;;;;;5043567;28;20028;-73
2023/02/20 06:51:30;;;;;;;74.15;36.65;;;7.60;99.90;;;;;;5049016;28;20040;-74
2023/02/20 06:53:58;;;;;;;71.97;36.72;;;7.60;99.90;;;;;;5044936;28;20033;-74
2023/02/20 06:56:29;;;;;;;76.93;38.13;;;7.60;99.90;;;;;;5031503;28;20041;-74
2023/02/20 06:58:57;;;;;;;72.63;35.78;;;7.60;99.90;;;;;;5041159;28;20060;-74
2023/02/20 07:01:27;;;;;;;63.67;33.90;;;7.60;99.90;;;;;;5046089;28;20045;-74
2023/02/20 07:03:54;;;;;;;63.42;32.78;;;7.60;99.90;;;;;;5048130;28;20029;-77
2023/02/20 07:06:22;;;;;;;63.38;33.65;;;7.60;99.90;;;;;;5045453;28;20052;-74
2023/02/20 07:08:48;;;;;;;69.53;35.17;;;7.60;99.90;;;;;;5046508;28;20040;-74
2023/02/20 07:11:17;;;;;;;70.05;34.47;;;7.70;99.90;;;;;;5043483;28;20446;-75
2023/02/20 07:13:43;;;;;;;62.30;33.47;;;7.70;99.90;;;;;;5058203;28;20029;-73
2023/02/20 07:16:09;;;;;;;61.58;32.30;;;7.70;99.90;;;;;;5044946;28;20416;-74
2023/02/20 07:18:36;;;;;;;58.58;32.25;;;7.70;99.90;;;;;;5027894;28;20041;-74
2023/02/20 07:21:02;;;;;;;81.03;38.47;;;7.70;99.90;;;;;;5033625;28;20041;-74
2023/02/20 07:23:29;;;;;;;59.60;32.47;;;7.70;99.90;;;;;;5040257;28;20041;-74
2023/02/20 07:25:55;;;;;;;69.25;33.83;;;7.80;99.90;;;;;;5044423;28;20491;-74
2023/02/20 07:28:21;;;;;;;55.72;33.63;;;7.80;99.90;;;;;;5031938;28;20055;-73
2023/02/20 07:30:48;;;;;;;64.55;33.05;;;7.80;99.90;;;;;;5040564;28;20390;-76
2023/02/20 07:33:18;;;;;;;60.67;32.50;;;7.80;99.90;;;;;;5042846;28;20427;-74
2023/02/20 07:35:45;;;;;;;65.05;32.72;;;7.80;99.90;;;;;;5048233;28;20483;-74
2023/02/20 07:38:12;;;;;;;63.80;34.10;;;7.80;99.90;;;;;;5046937;28;20044;-74
2023/02/20 07:40:38;;;;;;;70.72;35.17;;;7.80;99.90;;;;;;5048879;28;20400;-73
2023/02/20 07:43:04;;;;;;;59.10;32.28;;;7.90;99.90;;;;;;5033591;28;20403;-73
2023/02/20 07:45:31;;;;;;;58.50;33.13;;;7.90;99.90;;;;;;5046111;28;20052;-76
2023/02/20 07:47:57;;;;;;;59.65;33.42;;;7.90;99.90;;;;;;5042979;28;20033;-73
2023/02/20 07:50:23;;;;;;;63.63;35.22;;;7.90;99.90;;;;;;5045746;28;20040;-76
2023/02/20 07:52:50;;;;;;;62.10;36.65;;;7.90;99.90;;;;;;5043300;28;20569;-79
2023/02/20 07:55:17;;;;;;;66.20;35.92;;;7.90;99.90;;;;;;5043735;28;20036;-80
2023/02/20 07:57:49;;;;;;;79.82;37.67;;;8.00;99.90;;;;;;5030240;28;20590;-77
2023/02/20 08:00:17;;;;;;;63.67;34.88;;;8.00;99.90;;;;;;5029180;28;20040;-80
2023/02/20 08:02:43;;;;;;;67.20;36.60;;;7.90;99.90;;;;;;5042469;28;20036;-75
2023/02/20 08:05:09;;;;;;;79.75;39.60;;;8.00;99.90;;;;;;5042463;28;20047;-76
2023/02/20 08:07:36;;;;;;;74.30;41.13;;;8.00;99.90;;;;;;5039644;28;20434;-76
2023/02/20 08:10:04;;;;;;;69.00;41.33;;;8.00;99.90;;;;;;5027688;28;20044;-79
2023/02/20 08:12:31;;;;;;;69.20;39.13;;;8.00;99.90;;;;;;5046718;28;20035;-80
2023/02/20 08:14:57;;;;;;;63.22;36.55;;;8.00;99.90;;;;;;5041191;28;20400;-74
2023/02/20 08:17:23;;;;;;;62.35;38.47;;;8.10;99.90;;;;;;5041500;28;20048;-75
2023/02/20 08:19:50;;;;;;;66.13;38.13;;;8.10;99.90;;;;;;5042171;28;20475;-74
2023/02/20 08:22:16;;;;;;;67.63;36.83;;;8.10;99.90;;;;;;5040577;28;20036;-76
2023/02/20 08:24:42;;;;;;;62.95;38.35;;;8.20;99.90;;;;;;5040071;28;20037;-76
2023/02/20 08:27:09;;;;;;;73.82;41.17;;;8.20;99.90;;;;;;5058221;28;20036;-75
2023/02/20 08:29:35;;;;;;;65.78;37.33;;;8.20;99.90;;;;;;5040123;28;20043;-74
2023/02/20 08:32:01;;;;;;;62.63;36.72;;;8.20;99.90;;;;;;5038290;28;20079;-74
2023/02/20 08:34:27;;;;;;;68.75;39.45;;;8.30;99.90;;;;;;5042883;28;20483;-74
2023/02/20 08:36:54;;;;;;;62.60;37.40;;;8.30;99.90;;;;;;5018735;28;20036;-74
2023/02/20 08:39:20;;;;;;;63.63;37.67;;;8.30;99.90;;;;;;5041081;28;20383;-74
2023/02/20 08:41:47;;;;;;;64.07;36.67;;;8.30;99.90;;;;;;5040660;28;20110;-73
2023/02/20 08:44:14;;;;;;;53.30;31.63;;;8.40;99.90;;;;;;5042371;28;20116;-74
2023/02/20 08:46:47;;;;;;;63.58;36.05;;;8.40;99.90;;;;;;5066891;28;20509;-76
2023/02/20 08:49:15;;;;;;;65.18;35.63;;;8.40;99.90;;;;;;5069323;28;20044;-76
2023/02/20 08:51:41;;;;;;;62.92;35.03;;;8.50;99.90;;;;;;5054375;28;20055;-74
2023/02/20 08:54:08;;;;;;;58.78;34.78;;;8.50;99.90;;;;;;5034492;28;20043;-74
2023/02/20 08:56:34;;;;;;;61.45;35.03;;;8.60;99.90;;;;;;5036911;28;20043;-75
2023/02/20 08:59:01;;;;;;;57.70;33.05;;;8.60;99.90;;;;;;5046862;28;20406;-74
2023/02/20 09:01:27;;;;;;;65.55;35.60;;;8.60;99.90;;;;;;5056977;28;20040;-74
2023/02/20 09:03:54;;;;;;;55.05;34.67;;;8.70;99.90;;;;;;5047168;28;20035;-73
2023/02/20 09:06:24;;;;;;;59.60;33.28;;;8.70;99.90;;;;;;5046868;28;20032;-76
2023/02/20 09:08:51;;;;;;;55.60;32.63;;;8.70;99.90;;;;;;5071716;28;20028;-74
2023/02/20 09:11:18;;;;;;;60.72;34.75;;;8.80;99.90;;;;;;5056915;28;20538;-74
2023/02/20 09:13:46;;;;;;;59.95;33.13;;;8.80;99.90;;;;;;5049212;28;20390;-74
2023/02/20 09:16:14;;;;;;;52.67;33.35;;;8.90;99.90;;;;;;5068335;28;20383;-74
2023/02/20 09:18:43;;;;;;;53.90;31.63;;;8.90;99.90;;;;;;5037488;28;20031;-73
2023/02/20 09:21:11;;;;;;;63.17;32.45;;;8.90;99.90;;;;;;5050906;28;20032;-75
2023/02/20 09:23:38;;;;;;;52.03;31.75;;;9.00;99.90;;;;;;5057311;28;20043;-74
2023/02/20 09:26:04;;;;;;;53.33;31.70;;;9.00;99.90;;;;;;5068755;28;20031;-74
2023/02/20 09:28:31;;;;;;;53.95;31.60;;;9.00;99.90;;;;;;5036937;28;20044;-76
2023/02/20 09:30:59;;;;;;;46.42;28.95;;;9.00;99.90;;;;;;5068391;28;20027;-75
2023/02/20 09:33:26;;;;;;;46.78;27.95;;;9.00;99.90;;;;;;5047326;28;20040;-74
2023/02/20 09:35:53;;;;;;;47.70;29.13;;;9.00;99.90;;;;;;5055097;28;20043;-74
2023/02/20 09:38:21;;;;;;;47.92;27.38;;;9.00;99.90;;;;;;5031209;28;20114;-74
2023/02/20 09:40:51;;;;;;;44.20;26.23;;;9.00;99.90;;;;;;5055616;28;20036;-74
2023/02/20 09:43:29;;;;;;;48.72;25.73;;;9.00;99.90;;;;;;5066157;28;20028;-74
2023/02/20 09:46:19;;;;;;;41.75;25.20;;;9.00;99.90;;;;;;5065577;28;20036;-74
2023/02/20 09:48:58;;;;;;;45.65;24.75;;;9.00;99.90;;;;;;5035763;28;20047;-73
2023/02/20 09:51:29;;;;;;;42.10;24.25;;;9.00;99.90;;;;;;5051538;28;20468;-75
2023/02/20 09:54:00;;;;;;;43.22;23.00;;;9.00;99.90;;;;;;5046250;28;20024;-74
2023/02/20 09:56:40;;;;;;;39.08;24.38;;;9.00;99.90;;;;;;5066283;28;20036;-75
2023/02/20 09:59:28;;;;;;;40.90;23.45;;;8.90;99.90;;;;;;5054484;28;20557;-74
2023/02/20 10:01:56;;;;;;;45.33;25.33;;;8.90;99.90;;;;;;5039905;28;20040;-75
2023/02/20 10:04:45;;;;;;;44.47;25.92;;;8.90;99.90;;;;;;5052240;28;20466;-74
2023/02/20 10:07:15;;;;;;;34.47;22.60;;;8.90;99.90;;;;;;5051356;28;20032;-73
2023/02/20 10:09:42;;;;;;;46.53;24.30;;;8.90;99.90;;;;;;5063772;28;20020;-74
2023/02/20 10:12:29;;;;;;;44.25;25.90;;;8.90;99.90;;;;;;5022462;28;20024;-74
2023/02/20 10:15:26;;;;;;;42.38;21.75;;;8.90;99.90;;;;;;5036890;28;20406;-76
2023/02/20 10:18:01;;;;;;;46.80;22.35;;;8.90;99.90;;;;;;5053485;28;20036;-74
2023/02/20 10:20:45;;;;;;;42.63;22.42;;;8.90;99.90;;;;;;5046905;28;20063;-74
2023/02/20 10:23:32;;;;;;;37.38;21.30;;;8.90;99.90;;;;;;5063550;28;20356;-73
2023/02/20 10:26:03;;;;;;;40.05;21.60;;;9.00;99.90;;;;;;5036338;28;20033;-74
2023/02/20 10:28:30;;;;;;;35.67;19.67;;;9.00;99.90;;;;;;5032943;28;20032;-74
2023/02/20 10:31:08;;;;;;;38.53;18.88;;;9.00;99.90;;;;;;5052002;28;20044;-74
2023/02/20 10:33:46;;;;;;;34.72;18.10;;;9.00;99.90;;;;;;5053300;28;20024;-76
2023/02/20 10:36:22;;;;;;;27.15;14.32;;;9.00;99.90;;;;;;5050686;28;20409;-74
2023/02/20 10:38:54;;;;;;;30.30;14.02;;;9.00;99.90;;;;;;5050401;28;20025;-74
2023/02/20 10:41:32;;;;;;;30.00;12.15;;;9.00;99.90;;;;;;5050853;28;20028;-74
2023/02/20 10:44:09;;;;;;;23.75;12.20;;;9.00;99.90;;;;;;5049213;28;20019;-74
2023/02/20 10:46:50;;;;;;;20.08;10.57;;;9.10;99.90;;;;;;5046075;28;20048;-73
2023/02/20 10:49:49;;;;;;;23.48;12.18;;;9.10;99.90;;;;;;5058647;28;20043;-73
2023/02/20 10:52:21;;;;;;;31.83;14.73;;;9.10;99.90;;;;;;5012487;28;20051;-74
2023/02/20 10:54:59;;;;;;;28.48;13.77;;;9.10;99.90;;;;;;5047961;28;20412;-73
2023/02/20 10:57:39;;;;;;;32.33;14.68;;;9.10;99.90;;;;;;5064448;28;20039;-74
2023/02/20 11:00:09;;;;;;;21.38;12.95;;;9.10;99.90;;;;;;5065407;28;20035;-74
2023/02/20 11:02:42;;;;;;;25.58;13.43;;;9.10;99.90;;;;;;5044407;28;20037;-74
2023/02/20 11:05:16;;;;;;;28.05;14.70;;;9.10;99.90;;;;;;5046718;28;20029;-74
2023/02/20 11:07:42;;;;;;;22.42;14.10;;;9.10;99.90;;;;;;5045500;28;20021;-75
2023/02/20 11:10:09;;;;;;;31.60;20.08;;;9.20;99.90;;;;;;5028497;28;20040;-75
2023/02/20 11:12:51;;;;;;;38.25;22.35;;;9.20;99.90;;;;;;5029436;28;20035;-75
2023/02/20 11:15:24;;;;;;;32.60;19.58;;;9.30;99.90;;;;;;5043369;28;20047;-73
2023/02/20 11:17:53;;;;;;;30.25;17.77;;;9.20;99.90;;;;;;5045271;28;20037;-75
2023/02/20 11:20:31;;;;;;;35.67;17.73;;;9.30;99.90;;;;;;5039655;28;20048;-74
2023/02/20 11:23:00;;;;;;;23.73;14.63;;;9.30;99.90;;;;;;5029541;28;20051;-74
2023/02/20 11:25:34;;;;;;;35.03;14.90;;;9.30;99.90;;;;;;5040229;28;20033;-74
2023/02/20 11:28:18;;;;;;;26.40;13.85;;;9.40;99.90;;;;;;5023470;28;20524;-73
2023/02/20 11:30:47;;;;;;;22.48;11.93;;;9.40;99.90;;;;;;5019470;28;20055;-74
2023/02/20 11:33:20;;;;;;;25.42;11.88;;;9.40;99.90;;;;;;5047931;28;20048;-74
2023/02/20 11:35:57;;;;;;;26.40;12.88;;;9.50;99.90;;;;;;5046302;28;20029;-75
2023/02/20 11:38:29;;;;;;;18.02;12.00;;;9.50;99.90;;;;;;5049934;28;20032;-73
2023/02/20 11:41:02;;;;;;;24.55;11.52;;;9.50;99.90;;;;;;5035142;28;20029;-75
2023/02/20 11:43:33;;;;;;;19.00;10.98;;;9.50;99.90;;;;;;5057264;28;20045;-75
2023/02/20 11:46:16;;;;;;;20.02;10.30;;;9.50;99.90;;;;;;5034700;28;20393;-77
2023/02/20 11:49:01;;;;;;;;;;;9.50;99.90;;;;;;5043545;28;20032;-74
2023/02/20 11:51:47;;;;;;;19.30;10.20;;;9.40;99.90;;;;;;5052255;28;19909;-74
2023/02/20 11:54:23;;;;;;;19.83;9.82;;;9.40;99.90;;;;;;5033775;28;20024;-74
2023/02/20 11:57:20;;;;;;;15.52;8.70;;;9.40;99.90;;;;;;5057459;28;20037;-74
2023/02/20 12:00:08;;;;;;;16.35;10.23;;;9.40;99.90;;;;;;5044757;28;20040;-73
2023/02/20 12:03:27;;;;;;;18.65;9.48;;;9.30;99.90;;;;;;5043308;28;20530;-74
2023/02/20 12:05:54;;;;;;;27.10;11.35;;;9.30;99.90;;;;;;5036709;28;20049;-74
2023/02/20 12:08:29;;;;;;;16.08;10.43;;;9.40;99.90;;;;;;5040693;28;20028;-73
2023/02/20 12:11:00;;;;;;;19.05;10.95;;;9.40;99.90;;;;;;5031103;28;20025;-76
2023/02/20 12:13:27;;;;;;;19.50;11.32;;;9.40;99.90;;;;;;5040599;28;20431;-73
2023/02/20 12:16:26;;;;;;;15.93;9.45;;;9.40;99.90;;;;;;5046462;28;20482;-73
2023/02/20 12:19:16;;;;;;;16.67;9.15;;;9.40;99.90;;;;;;5037909;28;20052;-74
2023/02/20 12:22:13;;;;;;;16.40;9.70;;;9.40;99.90;;;;;;5051191;28;20039;-73
2023/02/20 12:24:53;;;;;;;17.85;10.02;;;9.40;99.90;;;;;;5051750;28;20036;-79
2023/02/20 12:27:45;;;;;;;14.13;8.77;;;9.40;99.90;;;;;;5031995;28;20395;-77
2023/02/20 12:30:27;;;;;;;14.95;9.30;;;9.40;99.90;;;;;;5037504;28;20029;-78
2023/02/20 12:33:11;;;;;;;15.27;9.02;;;9.40;99.90;;;;;;5017597;28;20912;-80
2023/02/20 12:35:52;;;;;;;14.93;8.48;;;9.40;99.90;;;;;;5049539;28;20051;-79
2023/02/20 12:38:48;;;;;;;20.27;8.93;;;9.40;99.90;;;;;;5036546;28;20043;-79
2023/02/20 12:41:58;;;;;;;17.73;9.43;;;9.50;99.90;;;;;;5042263;28;20406;-78
2023/02/20 12:44:52;;;;;;;13.65;7.85;;;9.50;99.90;;;;;;5046578;28;20059;-77
2023/02/20 12:47:33;;;;;;;14.45;7.47;;;9.50;99.90;;;;;;5069204;28;20047;-78
2023/02/20 12:50:20;;;;;;;14.05;7.43;;;9.60;99.90;;;;;;5045694;28;20375;-79
2023/02/20 12:53:23;;;;;;;13.88;7.68;;;9.60;99.90;;;;;;5029608;28;20491;-78
2023/02/20 12:56:21;;;;;;;11.50;6.85;;;9.60;99.90;;;;;;5044949;28;20508;-78
2023/02/20 12:58:57;;;;;;;11.90;6.20;;;9.60;99.90;;;;;;5046343;28;20043;-78
2023/02/20 13:01:23;;;;;;;12.30;6.47;;;9.70;99.90;;;;;;5048939;28;20041;-78
2023/02/20 13:03:56;;;;;;;13.05;6.80;;;9.70;99.90;;;;;;5039199;28;20546;-79
2023/02/20 13:06:46;;;;;;;10.35;6.40;;;9.70;99.90;;;;;;5024366;28;20028;-75
2023/02/20 13:09:31;;;;;;;13.57;5.93;;;9.70;99.90;;;;;;5068600;28;20484;-74
2023/02/20 13:12:12;;;;;;;11.75;5.35;;;9.70;99.90;;;;;;5046180;28;20040;-74
2023/02/20 13:15:02;;;;;;;8.25;4.55;;;9.70;99.90;;;;;;5069813;28;20044;-75
2023/02/20 13:17:54;;;;;;;10.77;5.85;;;9.80;99.90;;;;;;5044694;28;20028;-76
2023/02/20 13:20:32;;;;;;;11.93;6.30;;;9.80;99.90;;;;;;5032688;28;20037;-74